createdAt,value
2022-12-12T00:01:33.357Z,99680.00
2022-12-12T00:04:01.401Z,99685.00
2022-12-12T00:06:29.686Z,99681.00
2022-12-12T00:08:57.476Z,99682.00
2022-12-12T00:11:26.019Z,99678.00
2022-12-12T00:13:54.716Z,99677.00
2022-12-12T00:16:23.716Z,99683.00
2022-12-12T00:18:52.521Z,99685.00
2022-12-12T00:21:26.017Z,99681.00
2022-12-12T00:23:54.574Z,99680.00
2022-12-12T00:26:33.519Z,99678.00
2022-12-12T00:29:02.634Z,99680.00
2022-12-12T00:31:30.783Z,99682.00
2022-12-12T00:33:58.930Z,99691.00
2022-12-12T00:36:29.298Z,99693.00
2022-12-12T00:38:57.613Z,99691.00
2022-12-12T00:41:25.443Z,99683.00
2022-12-12T00:43:53.389Z,99686.00
2022-12-12T00:46:23.680Z,99682.00
2022-12-12T00:48:53.886Z,99683.00
2022-12-12T00:51:24.619Z,99680.00
2022-12-12T00:53:52.803Z,99683.00
2022-12-12T00:56:22.211Z,99678.00
2022-12-12T00:58:50.951Z,99679.00
2022-12-12T01:01:24.659Z,99681.00
2022-12-12T01:03:53.117Z,99686.00
2022-12-12T01:06:22.007Z,99681.00
2022-12-12T01:08:49.966Z,99686.00
2022-12-12T01:11:19.315Z,99682.00
2022-12-12T01:13:48.635Z,99693.00
2022-12-12T01:16:16.553Z,99703.00
2022-12-12T01:18:44.416Z,99703.00
2022-12-12T01:21:14.864Z,99711.00
2022-12-12T01:23:43.466Z,99698.00
2022-12-12T01:26:17.655Z,99700.00
2022-12-12T01:28:45.988Z,99708.00
2022-12-12T01:31:13.944Z,99711.00
2022-12-12T01:33:46.521Z,99704.00
2022-12-12T01:36:19.446Z,99710.00
2022-12-12T01:38:48.036Z,99714.00
2022-12-12T01:41:16.626Z,99709.00
2022-12-12T01:43:45.279Z,99709.00
2022-12-12T01:46:34.111Z,99712.00
2022-12-12T01:49:15.972Z,99709.00
2022-12-12T01:51:44.366Z,99708.00
2022-12-12T01:54:17.645Z,99702.00
2022-12-12T01:56:46.824Z,99699.00
2022-12-12T01:59:16.387Z,99698.00
2022-12-12T02:01:44.665Z,99698.00
2022-12-12T02:04:12.894Z,99698.00
2022-12-12T02:06:42.070Z,99702.00
2022-12-12T02:09:12.524Z,99695.00
2022-12-12T02:11:46.339Z,99701.00
2022-12-12T02:14:28.275Z,99696.00
2022-12-12T02:17:17.125Z,99696.00
2022-12-12T02:19:57.200Z,99702.00
2022-12-12T02:22:56.938Z,99705.00
2022-12-12T02:25:27.744Z,99703.00
2022-12-12T02:28:29.975Z,99708.00
2022-12-12T02:31:14.404Z,99701.00
2022-12-12T02:34:13.155Z,99707.00
2022-12-12T02:37:06.393Z,99706.00
2022-12-12T02:39:42.576Z,99698.00
2022-12-12T02:42:24.142Z,99697.00
2022-12-12T02:45:07.225Z,99701.00
2022-12-12T02:47:39.247Z,99709.00
2022-12-12T02:50:17.494Z,99713.00
2022-12-12T02:52:47.098Z,99707.00
2022-12-12T02:55:15.792Z,99717.00
2022-12-12T02:57:44.143Z,99716.00
2022-12-12T03:00:19.156Z,99711.00
2022-12-12T03:02:46.656Z,99705.00
2022-12-12T03:05:41.821Z,99706.00
2022-12-12T03:08:28.776Z,99702.00
2022-12-12T03:11:16.343Z,99718.00
2022-12-12T03:13:47.150Z,99725.00
2022-12-12T03:16:30.677Z,99725.00
2022-12-12T03:19:00.251Z,99719.00
2022-12-12T03:21:42.821Z,99721.00
2022-12-12T03:24:30.661Z,99721.00
2022-12-12T03:27:46.113Z,99723.00
2022-12-12T03:30:17.994Z,99722.00
2022-12-12T03:33:14.157Z,99720.00
2022-12-12T03:35:47.786Z,99715.00
2022-12-12T03:38:20.291Z,99713.00
2022-12-12T03:40:58.481Z,99715.00
2022-12-12T03:43:28.876Z,99710.00
2022-12-12T03:45:59.816Z,99711.00
2022-12-12T03:48:32.543Z,99705.00
2022-12-12T03:51:10.392Z,99704.00
2022-12-12T03:53:47.691Z,99702.00
2022-12-12T03:56:25.290Z,99706.00
2022-12-12T03:59:05.848Z,99722.00
2022-12-12T04:02:11.639Z,99711.00
2022-12-12T04:04:50.894Z,99708.00
2022-12-12T04:07:30.279Z,99713.00
2022-12-12T04:10:16.537Z,99719.00
2022-12-12T04:13:12.467Z,99718.00
2022-12-12T04:15:59.512Z,99722.00
2022-12-12T04:18:36.775Z,99726.00
2022-12-12T04:21:54.107Z,99722.00
2022-12-12T04:24:39.243Z,99729.00
2022-12-12T04:27:38.553Z,99734.00
2022-12-12T04:30:11.742Z,99734.00
2022-12-12T04:32:45.655Z,99729.00
2022-12-12T04:35:17.148Z,99740.00
2022-12-12T04:38:04.006Z,99729.00
2022-12-12T04:40:58.001Z,99735.00
2022-12-12T04:43:38.034Z,99735.00
2022-12-12T04:46:14.274Z,99735.00
2022-12-12T04:48:58.538Z,99734.00
2022-12-12T04:51:33.137Z,99740.00
2022-12-12T04:54:22.829Z,99742.00
2022-12-12T04:56:54.264Z,99744.00
2022-12-12T04:59:22.201Z,99747.00
2022-12-12T05:01:54.245Z,99739.00
2022-12-12T05:04:33.952Z,99743.00
2022-12-12T05:07:11.323Z,99742.00
2022-12-12T05:09:39.773Z,99744.00
2022-12-12T05:12:07.665Z,99744.00
2022-12-12T05:14:35.515Z,99742.00
2022-12-12T05:17:12.217Z,99736.00
2022-12-12T05:19:39.897Z,99734.00
2022-12-12T05:22:08.106Z,99740.00
2022-12-12T05:24:35.897Z,99736.00
2022-12-12T05:27:04.094Z,99741.00
2022-12-12T05:29:32.376Z,99744.00
2022-12-12T05:32:00.303Z,99736.00
2022-12-12T05:34:28.106Z,99740.00
2022-12-12T05:36:56.028Z,99738.00
2022-12-12T05:39:23.952Z,99733.00
2022-12-12T05:41:53.004Z,99743.00
2022-12-12T05:44:20.801Z,99736.00
2022-12-12T05:46:48.600Z,99735.00
2022-12-12T05:49:16.296Z,99764.00
2022-12-12T05:51:44.114Z,99752.00
2022-12-12T05:54:12.200Z,99754.00
2022-12-12T05:56:40.299Z,99749.00
2022-12-12T05:59:08.226Z,99750.00
2022-12-12T06:01:36.122Z,99759.00
2022-12-12T06:04:04.213Z,99757.00
2022-12-12T06:06:32.125Z,99767.00
2022-12-12T06:08:59.872Z,99771.00
2022-12-12T06:11:27.646Z,99770.00
2022-12-12T06:13:55.457Z,99762.00
2022-12-12T06:16:23.193Z,99762.00
2022-12-12T06:18:55.058Z,99761.00
2022-12-12T06:21:23.037Z,99766.00
2022-12-12T06:23:51.577Z,99769.00
2022-12-12T06:26:21.301Z,99775.00
2022-12-12T06:28:49.335Z,99782.00
2022-12-12T06:31:17.440Z,99779.00
2022-12-12T06:33:45.491Z,99784.00
2022-12-12T06:36:23.965Z,99775.00
2022-12-12T06:38:53.644Z,99778.00
2022-12-12T06:41:21.950Z,99777.00
2022-12-12T06:43:49.995Z,99772.00
2022-12-12T06:46:21.746Z,99783.00
2022-12-12T06:48:50.553Z,99788.00
2022-12-12T06:51:21.400Z,99785.00
2022-12-12T06:53:49.607Z,99789.00
2022-12-12T06:56:25.302Z,99790.00
2022-12-12T06:58:54.121Z,99789.00
2022-12-12T07:01:23.713Z,99798.00
2022-12-12T07:03:55.213Z,99791.00
2022-12-12T07:06:24.055Z,99799.00
2022-12-12T07:08:52.674Z,99798.00
2022-12-12T07:11:26.094Z,99801.00
2022-12-12T07:13:56.220Z,99797.00
2022-12-12T07:16:24.386Z,99799.00
2022-12-12T07:18:52.200Z,99803.00
2022-12-12T07:21:21.260Z,99811.00
2022-12-12T07:23:49.075Z,99812.00
2022-12-12T07:26:20.329Z,99810.00
2022-12-12T07:28:49.049Z,99820.00
2022-12-12T07:31:19.788Z,99829.00
2022-12-12T07:33:47.737Z,99826.00
2022-12-12T07:36:16.465Z,99824.00
2022-12-12T07:38:44.836Z,99822.00
2022-12-12T07:41:15.563Z,99830.00
2022-12-12T07:43:45.174Z,99830.00
2022-12-12T07:46:18.927Z,99834.00
2022-12-12T07:48:47.159Z,99834.00
2022-12-12T07:51:15.107Z,99827.00
2022-12-12T07:53:43.056Z,99836.00
2022-12-12T07:56:13.249Z,99839.00
2022-12-12T07:58:41.189Z,99841.00
2022-12-12T08:01:15.064Z,99836.00
2022-12-12T08:03:44.620Z,99840.00
2022-12-12T08:06:13.126Z,99851.00
2022-12-12T08:08:41.227Z,99852.00
2022-12-12T08:11:11.398Z,99841.00
2022-12-12T08:13:40.422Z,99843.00
2022-12-12T08:16:14.471Z,99852.00
2022-12-12T08:18:42.522Z,99852.00
2022-12-12T08:21:14.066Z,99852.00
2022-12-12T08:23:44.550Z,99852.00
2022-12-12T08:26:17.999Z,99855.00
2022-12-12T08:28:49.357Z,99858.00
2022-12-12T08:31:18.139Z,99846.00
2022-12-12T08:33:46.885Z,99848.00
2022-12-12T08:36:18.767Z,99857.00
2022-12-12T08:38:46.711Z,99856.00
2022-12-12T08:41:15.411Z,99851.00
2022-12-12T08:43:44.569Z,99858.00
2022-12-12T08:46:18.189Z,99860.00
2022-12-12T08:48:47.253Z,99861.00
2022-12-12T08:51:16.078Z,99856.00
2022-12-12T08:53:48.172Z,99863.00
2022-12-12T08:56:16.741Z,99852.00
2022-12-12T08:58:45.983Z,99862.00
2022-12-12T09:01:22.618Z,99856.00
2022-12-12T09:03:51.982Z,99862.00
2022-12-12T09:06:20.307Z,99864.00
2022-12-12T09:08:49.264Z,99863.00
2022-12-12T09:11:17.512Z,99867.00
2022-12-12T09:13:45.462Z,99864.00
2022-12-12T09:16:13.649Z,99864.00
2022-12-12T09:18:48.066Z,99869.00
2022-12-12T09:21:17.116Z,99875.00
2022-12-12T09:23:45.056Z,99871.00
2022-12-12T09:26:14.305Z,99867.00
2022-12-12T09:28:42.777Z,99875.00
2022-12-12T09:31:12.692Z,99875.00
2022-12-12T09:33:41.193Z,99875.00
2022-12-12T09:36:09.813Z,99879.00
2022-12-12T09:38:37.783Z,99885.00
2022-12-12T09:41:16.203Z,99883.00
2022-12-12T09:44:08.622Z,99891.00
2022-12-12T09:46:43.752Z,99885.00
2022-12-12T09:49:39.932Z,99887.00
2022-12-12T09:52:16.428Z,99891.00
2022-12-12T09:54:44.592Z,99888.00
2022-12-12T09:57:18.109Z,99887.00
2022-12-12T09:59:58.822Z,99883.00
2022-12-12T10:02:52.552Z,99884.00
2022-12-12T10:05:35.428Z,99887.00
2022-12-12T10:08:31.120Z,99883.00
2022-12-12T10:11:04.944Z,99879.00
2022-12-12T10:13:37.032Z,99880.00
2022-12-12T10:16:10.630Z,99881.00
2022-12-12T10:18:44.994Z,99886.00
2022-12-12T10:21:22.982Z,99884.00
2022-12-12T10:23:55.937Z,99883.00
2022-12-12T10:26:30.732Z,99884.00
2022-12-12T10:29:20.288Z,99879.00
2022-12-12T10:31:48.050Z,99882.00
2022-12-12T10:34:40.723Z,99878.00
2022-12-12T10:37:14.921Z,99886.00
2022-12-12T10:40:06.607Z,99877.00
2022-12-12T10:42:48.425Z,99882.00
2022-12-12T10:45:27.715Z,99887.00
2022-12-12T10:47:55.720Z,99874.00
2022-12-12T10:50:32.579Z,99877.00
2022-12-12T10:53:01.986Z,99879.00
2022-12-12T10:55:51.970Z,99874.00
2022-12-12T10:58:20.935Z,99865.00
2022-12-12T11:00:50.147Z,99873.00
2022-12-12T11:03:53.187Z,99879.00
2022-12-12T11:06:37.969Z,99875.00
2022-12-12T11:09:29.433Z,99870.00
2022-12-12T11:12:03.118Z,99870.00
2022-12-12T11:14:38.110Z,99863.00
2022-12-12T11:17:30.030Z,99866.00
2022-12-12T11:20:01.619Z,99862.00
2022-12-12T11:22:32.439Z,99858.00
2022-12-12T11:25:00.943Z,99864.00
2022-12-12T11:27:38.748Z,99857.00
2022-12-12T11:30:10.675Z,99859.00
2022-12-12T11:32:47.424Z,99864.00
2022-12-12T11:35:29.179Z,99856.00
2022-12-12T11:38:01.695Z,99852.00
2022-12-12T11:40:37.039Z,99853.00
2022-12-12T11:43:28.197Z,99849.00
2022-12-12T11:46:14.995Z,99844.00
2022-12-12T11:48:49.013Z,99846.00
2022-12-12T11:51:35.305Z,99851.00
2022-12-12T11:54:14.839Z,99846.00
2022-12-12T11:57:11.783Z,99846.00
2022-12-12T12:00:01.107Z,99848.00
2022-12-12T12:02:47.792Z,99848.00
2022-12-12T12:05:26.138Z,99843.00
2022-12-12T12:08:01.595Z,99834.00
2022-12-12T12:11:06.958Z,99846.00
2022-12-12T12:13:57.938Z,99844.00
2022-12-12T12:16:34.801Z,99839.00
2022-12-12T12:19:23.886Z,99847.00
2022-12-12T12:22:02.977Z,99848.00
2022-12-12T12:24:49.396Z,99845.00
2022-12-12T12:27:45.503Z,99843.00
2022-12-12T12:30:22.502Z,99848.00
2022-12-12T12:33:25.281Z,99842.00
2022-12-12T12:36:21.141Z,99849.00
2022-12-12T12:39:10.901Z,99842.00
2022-12-12T12:41:41.637Z,99844.00
2022-12-12T12:44:34.431Z,99842.00
2022-12-12T12:47:26.590Z,99840.00
2022-12-12T12:50:42.868Z,99835.00
2022-12-12T12:53:30.260Z,99838.00
2022-12-12T12:56:01.689Z,99837.00
2022-12-12T12:58:39.118Z,99823.00
2022-12-12T13:01:14.859Z,99834.00
2022-12-12T13:03:57.657Z,99834.00
2022-12-12T13:06:50.886Z,99834.00
2022-12-12T13:09:42.369Z,99844.00
2022-12-12T13:12:40.681Z,99845.00
2022-12-12T13:15:22.961Z,99850.00
2022-12-12T13:18:13.669Z,99849.00
2022-12-12T13:21:00.927Z,99843.00
2022-12-12T13:23:37.629Z,99843.00
2022-12-12T13:26:32.067Z,99839.00
2022-12-12T13:29:03.222Z,99840.00
2022-12-12T13:32:08.522Z,99848.00
2022-12-12T13:34:41.268Z,99845.00
2022-12-12T13:37:11.409Z,99840.00
2022-12-12T13:39:39.462Z,99844.00
2022-12-12T13:42:11.743Z,99843.00
2022-12-12T13:44:42.842Z,99846.00
2022-12-12T13:47:22.357Z,99847.00
2022-12-12T13:50:08.944Z,99849.00
2022-12-12T13:52:42.456Z,99850.00
2022-12-12T13:55:21.772Z,99852.00
2022-12-12T13:58:06.159Z,99850.00
2022-12-12T14:00:41.358Z,99848.00
2022-12-12T14:03:12.540Z,99852.00
2022-12-12T14:05:41.753Z,99854.00
2022-12-12T14:08:21.499Z,99852.00
2022-12-12T14:10:49.348Z,99847.00
2022-12-12T14:13:24.402Z,99844.00
2022-12-12T14:15:58.048Z,99840.00
2022-12-12T14:18:36.216Z,99852.00
2022-12-12T14:21:07.991Z,99850.00
2022-12-12T14:23:42.349Z,99852.00
2022-12-12T14:26:29.046Z,99853.00
2022-12-12T14:29:18.859Z,99855.00
2022-12-12T14:32:12.929Z,99854.00
2022-12-12T14:34:59.433Z,99863.00
2022-12-12T14:37:33.077Z,99862.00
2022-12-12T14:40:04.543Z,99862.00
2022-12-12T14:43:19.000Z,99875.00
2022-12-12T14:45:51.757Z,99877.00
2022-12-12T14:48:33.596Z,99872.00
2022-12-12T14:51:11.667Z,99868.00
2022-12-12T14:53:39.449Z,99878.00
2022-12-12T14:56:20.445Z,99880.00
2022-12-12T14:59:17.788Z,99877.00
2022-12-12T15:01:50.447Z,99876.00
2022-12-12T15:04:28.273Z,99877.00
2022-12-12T15:07:01.249Z,99874.00
2022-12-12T15:09:39.729Z,99877.00
2022-12-12T15:12:14.897Z,99881.00
2022-12-12T15:14:48.870Z,99879.00
2022-12-12T15:17:32.582Z,99875.00
2022-12-12T15:20:04.487Z,99887.00
2022-12-12T15:22:37.507Z,99886.00
2022-12-12T15:25:18.375Z,99886.00
2022-12-12T15:27:55.006Z,99876.00
2022-12-12T15:30:28.978Z,99880.00
2022-12-12T15:32:57.183Z,99881.00
2022-12-12T15:35:25.195Z,99876.00
2022-12-12T15:37:59.337Z,99883.00
2022-12-12T15:40:34.618Z,99878.00
2022-12-12T15:43:07.594Z,99889.00
2022-12-12T15:45:49.095Z,99890.00
2022-12-12T15:48:18.219Z,99889.00
2022-12-12T15:50:46.152Z,99880.00
2022-12-12T15:53:24.055Z,99891.00
2022-12-12T15:55:54.588Z,99892.00
2022-12-12T15:58:29.462Z,99889.00
2022-12-12T16:01:26.038Z,99893.00
2022-12-12T16:03:59.345Z,99892.00
2022-12-12T16:06:34.756Z,99892.00
2022-12-12T16:09:02.657Z,99889.00
2022-12-12T16:11:47.639Z,99895.00
2022-12-12T16:14:40.789Z,99890.00
2022-12-12T16:17:28.571Z,99887.00
2022-12-12T16:20:06.623Z,99892.00
2022-12-12T16:22:45.279Z,99893.00
2022-12-12T16:25:16.072Z,99895.00
2022-12-12T16:27:44.609Z,99893.00
2022-12-12T16:30:14.755Z,99884.00
2022-12-12T16:32:43.657Z,99891.00
2022-12-12T16:35:16.897Z,99887.00
2022-12-12T16:37:45.852Z,99885.00
2022-12-12T16:40:15.815Z,99893.00
2022-12-12T16:42:45.952Z,99886.00
2022-12-12T16:45:13.682Z,99888.00
2022-12-12T16:47:41.461Z,99894.00
2022-12-12T16:50:10.035Z,99897.00
2022-12-12T16:52:37.869Z,99904.00
2022-12-12T16:55:23.189Z,99902.00
2022-12-12T16:57:50.957Z,99889.00
2022-12-12T17:00:18.978Z,99893.00
2022-12-12T17:02:46.730Z,99890.00
2022-12-12T17:05:22.561Z,99891.00
2022-12-12T17:07:51.359Z,99890.00
2022-12-12T17:10:20.988Z,99903.00
2022-12-12T17:12:48.851Z,99904.00
2022-12-12T17:15:25.753Z,99899.00
2022-12-12T17:17:53.538Z,99899.00
2022-12-12T17:20:21.415Z,99899.00
2022-12-12T17:22:49.367Z,99895.00
2022-12-12T17:25:17.383Z,99915.00
2022-12-12T17:27:45.600Z,99910.00
2022-12-12T17:30:14.766Z,99909.00
2022-12-12T17:32:43.038Z,99916.00
2022-12-12T17:35:11.176Z,99915.00
2022-12-12T17:37:39.203Z,99916.00
2022-12-12T17:40:09.737Z,99923.00
2022-12-12T17:42:38.591Z,99922.00
2022-12-12T17:45:08.286Z,99916.00
2022-12-12T17:47:36.150Z,99913.00
2022-12-12T17:50:04.677Z,99921.00
2022-12-12T17:52:33.157Z,99918.00
2022-12-12T17:55:54.624Z,99910.00
2022-12-12T17:57:48.967Z,99907.00
2022-12-12T18:00:18.067Z,99907.00
2022-12-12T18:02:45.824Z,99911.00
2022-12-12T18:05:13.616Z,99916.00
2022-12-12T18:07:41.360Z,99917.00
2022-12-12T18:10:09.398Z,99910.00
2022-12-12T18:12:37.253Z,99921.00
2022-12-12T18:15:05.551Z,99911.00
2022-12-12T18:17:33.296Z,99919.00
2022-12-12T18:20:01.197Z,99918.00
2022-12-12T18:22:28.926Z,99922.00
2022-12-12T18:24:56.903Z,99915.00
2022-12-12T18:27:24.816Z,99919.00
2022-12-12T18:29:52.706Z,99923.00
2022-12-12T18:32:20.645Z,99923.00
2022-12-12T18:34:48.290Z,99932.00
2022-12-12T18:37:17.057Z,99932.00
2022-12-12T18:39:44.818Z,99921.00
2022-12-12T18:42:12.580Z,99923.00
2022-12-12T18:44:40.211Z,99922.00
2022-12-12T18:47:08.723Z,99922.00
2022-12-12T18:49:36.435Z,99931.00
2022-12-12T18:52:04.815Z,99921.00
2022-12-12T18:54:35.599Z,99933.00
2022-12-12T18:57:03.353Z,99934.00
2022-12-12T18:59:32.132Z,99933.00
2022-12-12T19:02:00.011Z,99926.00
2022-12-12T19:04:27.996Z,99928.00
2022-12-12T19:06:55.877Z,99924.00
2022-12-12T19:09:23.749Z,99928.00
2022-12-12T19:11:58.232Z,99929.00
2022-12-12T19:14:45.898Z,99920.00
2022-12-12T19:17:25.368Z,99923.00
2022-12-12T19:19:54.293Z,99932.00
2022-12-12T19:25:10.106Z,99922.00
2022-12-12T19:27:37.834Z,99933.00
2022-12-12T19:30:06.422Z,99925.00
2022-12-12T19:32:34.448Z,99931.00
2022-12-12T19:35:02.520Z,99930.00
2022-12-12T19:37:30.376Z,99933.00
2022-12-12T19:39:58.409Z,99933.00
2022-12-12T19:42:26.333Z,99940.00
2022-12-12T19:44:54.684Z,99944.00
2022-12-12T19:47:22.716Z,99939.00
2022-12-12T19:49:51.108Z,99941.00
2022-12-12T19:52:20.011Z,99950.00
2022-12-12T19:54:48.071Z,99954.00
2022-12-12T19:57:16.191Z,99955.00
2022-12-12T19:59:45.009Z,99966.00
2022-12-12T20:02:13.245Z,99960.00
2022-12-12T20:04:41.731Z,99954.00
2022-12-12T20:07:09.652Z,99963.00
2022-12-12T20:09:37.724Z,99954.00
2022-12-12T20:12:05.947Z,99960.00
2022-12-12T20:14:35.581Z,99963.00
2022-12-12T20:17:04.516Z,99963.00
2022-12-12T20:19:32.546Z,99955.00
2022-12-12T20:22:02.129Z,99948.00
2022-12-12T20:24:31.553Z,99951.00
2022-12-12T20:27:00.087Z,99939.00
2022-12-12T20:29:28.506Z,99942.00
2022-12-12T20:31:56.370Z,99941.00
2022-12-12T20:34:25.145Z,99930.00
2022-12-12T20:36:55.845Z,99925.00
2022-12-12T20:39:25.291Z,99933.00
2022-12-12T20:41:57.206Z,99929.00
2022-12-12T20:44:25.917Z,99941.00
2022-12-12T20:46:54.044Z,99927.00
2022-12-12T20:49:24.240Z,99943.00
2022-12-12T20:51:59.696Z,99926.00
2022-12-12T20:54:29.621Z,99922.00
2022-12-12T20:56:58.705Z,99924.00
2022-12-12T20:59:27.189Z,99921.00
2022-12-12T21:01:55.184Z,99923.00
2022-12-12T21:04:27.404Z,99920.00
2022-12-12T21:06:55.262Z,99918.00
2022-12-12T21:09:26.517Z,99922.00
2022-12-12T21:11:58.468Z,99921.00
2022-12-12T21:14:28.109Z,99921.00
2022-12-12T21:16:56.437Z,99926.00
2022-12-12T21:19:24.342Z,99921.00
2022-12-12T21:21:55.245Z,99922.00
2022-12-12T21:24:25.197Z,99920.00
2022-12-12T21:26:53.005Z,99924.00
2022-12-12T21:29:20.811Z,99930.00
2022-12-12T21:31:52.108Z,99935.00
2022-12-12T21:34:24.126Z,99935.00
2022-12-12T21:36:55.837Z,99931.00
2022-12-12T21:39:30.025Z,99934.00
2022-12-12T21:41:57.997Z,99930.00
2022-12-12T21:44:26.769Z,99929.00
2022-12-12T21:46:55.288Z,99931.00
2022-12-12T21:49:28.425Z,99929.00
2022-12-12T21:51:59.549Z,99937.00
2022-12-12T21:54:29.371Z,99933.00
2022-12-12T21:57:01.094Z,99940.00
2022-12-12T21:59:29.417Z,99938.00
2022-12-12T22:01:59.285Z,99937.00
2022-12-12T22:04:27.528Z,99940.00
2022-12-12T22:06:55.621Z,99937.00
2022-12-12T22:09:23.603Z,99929.00
2022-12-12T22:11:52.117Z,99922.00
2022-12-12T22:14:31.979Z,99929.00
2022-12-12T22:17:02.224Z,99929.00
2022-12-12T22:19:30.198Z,99931.00
2022-12-12T22:21:58.349Z,99936.00
2022-12-12T22:24:26.570Z,99929.00
2022-12-12T22:26:54.820Z,99927.00
2022-12-12T22:29:22.707Z,99933.00
2022-12-12T22:31:52.478Z,99922.00
2022-12-12T22:34:23.633Z,99934.00
2022-12-12T22:36:52.324Z,99922.00
2022-12-12T22:39:25.237Z,99929.00
2022-12-12T22:41:57.421Z,99927.00
2022-12-12T22:44:26.023Z,99932.00
2022-12-12T22:46:55.282Z,99928.00
2022-12-12T22:49:28.384Z,99926.00
2022-12-12T22:51:57.571Z,99929.00
2022-12-12T22:54:29.692Z,99927.00
2022-12-12T22:56:57.469Z,99922.00
2022-12-12T22:59:25.266Z,99923.00
2022-12-12T23:01:58.626Z,99918.00
2022-12-12T23:04:27.144Z,99915.00
2022-12-12T23:06:55.794Z,99911.00
2022-12-12T23:09:26.452Z,99910.00
2022-12-12T23:11:54.953Z,99919.00
2022-12-12T23:14:26.448Z,99908.00
2022-12-12T23:16:55.628Z,99923.00
2022-12-12T23:19:26.047Z,99915.00
2022-12-12T23:21:53.945Z,99913.00
2022-12-12T23:24:21.829Z,99919.00
2022-12-12T23:26:51.513Z,99918.00
2022-12-12T23:29:20.370Z,99906.00
2022-12-12T23:31:48.873Z,99904.00
2022-12-12T23:34:31.411Z,99900.00
2022-12-12T23:36:59.461Z,99904.00
2022-12-12T23:39:27.922Z,99905.00
2022-12-12T23:41:56.145Z,99911.00
2022-12-12T23:44:25.047Z,99904.00
2022-12-12T23:46:56.037Z,99903.00
2022-12-12T23:49:25.598Z,99909.00
2022-12-12T23:51:58.221Z,99906.00
2022-12-12T23:54:32.245Z,99900.00
2022-12-12T23:57:01.428Z,99896.00
2022-12-12T23:59:29.636Z,99900.00
